• Join FlightAware (Why Join?)
  • Login
  • US Flag 
05:53PM EDT


 

Airport Tracker/Info


-or-


 

Live Flight TrackerFlight Track Log ✈ PDT4314 ✈ 06-Sep-2013 ✈ KBGM - KPHL

Flight Track Log - Related Links

Times and Time Zones

All times are in EDT time to prevent confusion due to time zone crossing. See the PDT4314 flight status page for this flight to view local times or setup timezone preferences in your user account.

Time Position Orientation Groundspeed Altitude Reporting Facility
EDT Latitude Longitude Course Direction KTS MPH feet Rate Location/Type
07:27PM 42.0250 -75.9196 180° South  Level Estimated
07:28PM 41.9791 -75.9046 154° Southeast  Level Estimated
07:29PM 41.9319 -75.9039 179° South  Level FlightAware Approximate
07:30PM 41.8861 -75.8886 160° South  Level Estimated
07:31PM 41.8403 -75.8734 159° South  Level Estimated
07:32PM 41.7937 -75.8633 171° South  Level FlightAware Approximate
07:33PM 41.7471 -75.8532 171° South  Level FlightAware Approximate
07:34PM 41.7014 -75.8379 153° Southeast  Level Estimated
07:35PM 41.6519 -75.8213 161° South  Level Estimated
07:36PM 41.6026 -75.8035 165° South  Level FlightAware Approximate
07:37PM 41.5533 -75.7858 165° South  Level FlightAware Approximate
07:38PM 41.5040 -75.7681 165° South  Level FlightAware Approximate
07:39PM 41.4544 -75.7517 162° South  Level Estimated
07:40PM 41.4057 -75.7317 163° South  Level FlightAware Approximate
07:41PM 41.3568 -75.7117 163° South  Level FlightAware Approximate
07:42PM 41.3080 -75.6918 163° South  Level FlightAware Approximate
07:43PM 41.2593 -75.6719 163° South  Level FlightAware Approximate
07:44PM 41.2104 -75.6520 163° South  Level FlightAware Approximate
07:45PM 41.1608 -75.6364 163° South  Level Estimated
07:46PM 41.1121 -75.6159 162° South  Level FlightAware Approximate
07:47PM 41.0635 -75.5954 162° South  Level FlightAware Approximate
07:48PM 41.0148 -75.5749 162° South  Level FlightAware Approximate
07:49PM 40.9662 -75.5544 162° South  Level FlightAware Approximate
07:50PM 40.9163 -75.5399 190° South  Level Estimated
07:51PM 40.8654 -75.5350 176° South  Level FlightAware Approximate
07:51PM 40.5333 -75.5167 182° South 240 276 5,000  Level Philadelphia TRACON
07:51PM 40.5167 -75.5333 217° Southwest 241 277 5,000  Level Philadelphia TRACON
07:52PM 40.8145 -75.5301 176° South  Level FlightAware Approximate
07:52PM 40.4500 -75.5333 180° South 243 280 5,000  Level Philadelphia TRACON
07:53PM 40.7636 -75.5252 176° South  Level FlightAware Approximate
07:53PM 40.3833 -75.5000 159° South 245 282 5,000  Level Philadelphia TRACON
07:54PM 40.7127 -75.5203 176° South  Level FlightAware Approximate
07:54PM 40.3333 -75.4500 143° Southeast 247 284 5,000  Level Philadelphia TRACON
07:55PM 40.6632 -75.5037 187° South  Level Estimated
07:55PM 40.2667 -75.4000 150° Southeast 246 283 5,000  Level Philadelphia TRACON
07:56PM 40.6122 -75.5062 182° South  Level FlightAware Approximate
07:56PM 40.2167 -75.3667 153° Southeast 240 276 5,000  Level Philadelphia TRACON
07:57PM 40.1667 -75.3167 143° Southeast 238 274 5,000  Level Philadelphia TRACON
07:58PM 40.1167 -75.2667 143° Southeast 238 274 5,000  Level Philadelphia TRACON
07:59PM 40.0500 -75.2167 150° Southeast 232 267 5,000 -60 Level Philadelphia TRACON
08:00PM 40.0000 -75.1833 153° Southeast 225 259 4,900 -360 Descending Philadelphia TRACON
08:01PM 39.9333 -75.1500 159° South 222 255 4,300 -660 Descending Philadelphia TRACON
08:02PM 39.8833 -75.1333 166° South 194 223 3,600 -1,140 Descending Philadelphia TRACON
08:03PM 39.8333 -75.1167 166° South 202 232 2,100 -1,080 Descending Philadelphia TRACON
08:04PM 39.8000 -75.1500 218° Southwest 176 203 1,500 -540 Descending Philadelphia TRACON
08:05PM 39.8167 -75.2000 293° West 128 147 1,100 -600 Descending Philadelphia TRACON
08:06PM 39.8500 -75.2167 339° North 110 127 400 -540 Descending Philadelphia TRACON
08:07PM 39.8667 -75.2333 322° Northwest 95 109 100 -360 Descending Philadelphia TRACON